Time;durP1;ratioP1;P1;durP2;ratioP2;P2;SDS_P1;SDS_P2;PMS_P1;PMS_P2;Temp;Humidity;BMP_temperature;BMP_pressure;BME280_temperature;BME280_humidity;BME280_pressure;Samples;Min_cycle;Max_cycle;Signal;HPM_P1;HPM_P2
2022/08/28 00:00:38;;;;;;;6.28;4.97;;;16.00;99.90;;;;;;5044450;28;20225;-71
2022/08/28 00:03:09;;;;;;;7.43;5.30;;;16.10;99.90;;;;;;5048101;28;20641;-70
2022/08/28 00:05:40;;;;;;;7.57;5.85;;;16.20;99.90;;;;;;5046337;28;20189;-75
2022/08/28 00:08:12;;;;;;;6.03;5.10;;;16.40;99.90;;;;;;5040800;28;20205;-71
2022/08/28 00:10:44;;;;;;;4.82;4.10;;;16.50;99.90;;;;;;5048977;28;20189;-72
2022/08/28 00:13:20;;;;;;;5.10;3.67;;;16.60;99.90;;;;;;5043990;28;20195;-73
2022/08/28 00:15:52;;;;;;;5.07;4.03;;;16.70;99.90;;;;;;5041749;28;20280;-70
2022/08/28 00:18:24;;;;;;;3.10;2.25;;;16.80;99.90;;;;;;5043639;28;20196;-70
2022/08/28 00:20:56;;;;;;;2.33;1.80;;;17.00;99.90;;;;;;5045273;28;20305;-75
2022/08/28 00:23:27;;;;;;;2.33;2.05;;;17.10;99.90;;;;;;5041185;28;20221;-71
2022/08/28 00:25:58;;;;;;;4.95;3.17;;;17.10;99.90;;;;;;5041941;28;20198;-70
2022/08/28 00:28:29;;;;;;;6.80;3.28;;;17.20;99.90;;;;;;5042025;28;20285;-70
2022/08/28 00:31:01;;;;;;;4.05;2.70;;;17.30;99.90;;;;;;5044292;28;20213;-70
2022/08/28 00:33:34;;;;;;;5.15;2.60;;;17.50;99.90;;;;;;5043309;28;20201;-69
2022/08/28 00:36:05;;;;;;;2.60;2.10;;;17.60;99.90;;;;;;5040987;28;20186;-69
2022/08/28 00:38:36;;;;;;;2.70;1.48;;;17.70;99.90;;;;;;5042904;28;20192;-69
2022/08/28 00:41:09;;;;;;;1.75;1.60;;;17.80;99.90;;;;;;5042107;28;20194;-69
2022/08/28 00:43:43;;;;;;;2.13;1.23;;;17.90;99.90;;;;;;5040852;28;20198;-69
2022/08/28 00:46:16;;;;;;;1.63;1.20;;;18.10;99.90;;;;;;5041741;28;20194;-69
2022/08/28 00:48:46;;;;;;;3.17;2.20;;;18.20;99.90;;;;;;5041352;28;20194;-69
2022/08/28 00:54:07;;;;;;;3.65;2.30;;;18.40;99.90;;;;;;5041240;28;20271;-69
2022/08/28 00:56:40;;;;;;;2.40;2.00;;;18.40;99.90;;;;;;5040635;28;20236;-69
2022/08/28 00:59:15;;;;;;;3.60;2.10;;;18.50;99.90;;;;;;5038720;28;20198;-70
2022/08/28 01:01:48;;;;;;;2.90;2.20;;;18.60;99.90;;;;;;5048487;28;20194;-70
2022/08/28 01:04:24;;;;;;;5.30;2.40;;;18.70;99.90;;;;;;5049201;28;20192;-69
2022/08/28 01:06:58;;;;;;;3.15;1.80;;;18.80;99.90;;;;;;5045626;28;20229;-70
2022/08/28 01:09:32;;;;;;;3.75;2.10;;;18.90;99.90;;;;;;5045838;28;20567;-69
2022/08/28 01:12:07;;;;;;;2.80;1.52;;;18.90;99.90;;;;;;5047898;28;20207;-69
2022/08/28 01:14:44;;;;;;;2.45;1.65;;;18.90;99.90;;;;;;5044791;28;20264;-70
2022/08/28 01:17:16;;;;;;;2.53;1.48;;;19.10;99.90;;;;;;5045235;28;20193;-69
2022/08/28 01:19:54;;;;;;;1.70;1.10;;;19.10;99.90;;;;;;5044447;28;20201;-70
2022/08/28 01:22:30;;;;;;;4.88;1.30;;;19.20;99.90;;;;;;5047718;28;20298;-70
2022/08/28 01:25:04;;;;;;;3.00;1.10;;;19.40;99.90;;;;;;5046936;28;20191;-69
2022/08/28 01:27:35;;;;;;;1.27;1.17;;;19.60;99.90;;;;;;5054408;28;20192;-70
2022/08/28 01:30:06;;;;;;;2.10;1.20;;;19.60;99.90;;;;;;5042355;28;20192;-72
2022/08/28 01:32:39;;;;;;;1.90;1.15;;;19.60;99.90;;;;;;5047817;28;20600;-70
2022/08/28 01:35:13;;;;;;;4.78;1.40;;;19.70;99.90;;;;;;5048639;28;20189;-69
2022/08/28 01:37:45;;;;;;;3.08;1.05;;;19.90;99.90;;;;;;5048445;28;20184;-69
2022/08/28 01:40:27;;;;;;;1.75;0.82;;;20.00;99.90;;;;;;5048905;28;20321;-72
2022/08/28 01:42:57;;;;;;;1.92;0.90;;;20.00;99.90;;;;;;5053508;28;20567;-69
2022/08/28 01:45:28;;;;;;;1.30;0.60;;;20.00;99.90;;;;;;5043713;28;20569;-69
2022/08/28 01:47:59;;;;;;;1.38;0.75;;;20.00;99.90;;;;;;5043284;28;20190;-69
2022/08/28 01:50:30;;;;;;;2.25;0.50;;;20.10;99.90;;;;;;5045023;28;20554;-71
2022/08/28 01:53:01;;;;;;;0.68;0.50;;;20.10;99.90;;;;;;5048133;28;20235;-69
2022/08/28 01:55:34;;;;;;;1.50;0.40;;;20.00;99.90;;;;;;5044936;28;20187;-70
2022/08/28 01:58:07;;;;;;;1.05;0.50;;;20.10;99.90;;;;;;5053329;28;20404;-70
2022/08/28 02:00:38;;;;;;;0.98;0.40;;;20.10;99.90;;;;;;5054897;28;20192;-70
2022/08/28 02:03:09;;;;;;;0.55;0.40;;;20.10;99.90;;;;;;5053822;28;20190;-70
2022/08/28 02:05:41;;;;;;;0.77;0.40;;;20.20;99.90;;;;;;5053648;28;20199;-69
2022/08/28 02:08:12;;;;;;;1.35;0.40;;;20.20;99.90;;;;;;5050667;28;20194;-70
2022/08/28 02:10:46;;;;;;;1.52;0.50;;;20.00;99.90;;;;;;5052067;28;20185;-72
2022/08/28 02:13:16;;;;;;;0.57;0.40;;;20.10;99.90;;;;;;5050735;28;20575;-70
2022/08/28 02:15:50;;;;;;;0.85;0.50;;;20.20;99.90;;;;;;5048827;28;20186;-70
2022/08/28 02:18:21;;;;;;;1.30;0.50;;;20.10;99.90;;;;;;5044426;28;20186;-70
2022/08/28 02:20:52;;;;;;;1.35;0.63;;;20.20;99.90;;;;;;5049599;28;20205;-70
2022/08/28 02:23:23;;;;;;;2.10;0.40;;;20.20;99.90;;;;;;5045159;28;20236;-70
2022/08/28 02:25:55;;;;;;;1.48;0.40;;;20.30;99.90;;;;;;5046656;28;20186;-69
2022/08/28 02:28:26;;;;;;;1.67;0.50;;;20.50;99.90;;;;;;5042630;28;20561;-70
2022/08/28 02:30:57;;;;;;;1.95;0.47;;;20.40;99.90;;;;;;5047070;28;20189;-70
2022/08/28 02:33:28;;;;;;;1.08;0.43;;;20.50;99.90;;;;;;5044862;28;20226;-70
2022/08/28 02:35:59;;;;;;;1.27;0.50;;;20.50;99.90;;;;;;5050019;28;20189;-73
2022/08/28 02:38:29;;;;;;;0.40;0.30;;;20.30;99.90;;;;;;5046104;28;20186;-74
2022/08/28 02:41:02;;;;;;;0.57;0.40;;;20.30;99.90;;;;;;5045976;28;20614;-74
2022/08/28 02:43:33;;;;;;;1.30;0.40;;;20.20;99.90;;;;;;5047962;28;20190;-71
2022/08/28 02:46:04;;;;;;;1.02;0.40;;;20.30;99.90;;;;;;5044345;28;20190;-77
2022/08/28 02:48:36;;;;;;;1.63;0.45;;;20.10;99.90;;;;;;5045805;28;20677;-76
2022/08/28 02:51:10;;;;;;;0.45;0.30;;;20.10;99.90;;;;;;5047282;28;20609;-75
2022/08/28 02:53:41;;;;;;;0.40;0.40;;;20.20;99.90;;;;;;5048038;28;20676;-77
2022/08/28 02:56:13;;;;;;;1.00;0.40;;;20.30;99.90;;;;;;5043404;28;20191;-70
2022/08/28 02:58:44;;;;;;;1.48;0.57;;;20.30;99.90;;;;;;5047205;28;20277;-69
2022/08/28 03:01:15;;;;;;;1.17;0.70;;;20.30;99.90;;;;;;5044607;28;20186;-69
2022/08/28 03:03:46;;;;;;;0.95;0.45;;;20.20;99.90;;;;;;5048347;28;20193;-69
2022/08/28 03:06:17;;;;;;;0.65;0.40;;;20.10;99.90;;;;;;5042875;28;20190;-70
2022/08/28 03:08:48;;;;;;;1.23;0.50;;;20.20;99.90;;;;;;5048345;28;20207;-69
2022/08/28 03:11:20;;;;;;;1.17;0.50;;;20.10;99.90;;;;;;5042595;28;20187;-69
2022/08/28 03:13:51;;;;;;;0.77;0.43;;;20.20;99.90;;;;;;5046327;28;20201;-70
2022/08/28 03:16:23;;;;;;;1.38;0.40;;;20.10;99.90;;;;;;5048664;28;20204;-72
2022/08/28 03:18:54;;;;;;;2.03;0.75;;;20.10;99.90;;;;;;5047233;28;20190;-71
2022/08/28 03:21:25;;;;;;;1.65;0.38;;;20.00;99.90;;;;;;5044075;28;20587;-70
2022/08/28 03:23:56;;;;;;;1.85;0.65;;;19.90;99.90;;;;;;5043179;28;20560;-72
2022/08/28 03:26:28;;;;;;;1.50;0.40;;;19.80;99.90;;;;;;5042348;28;20186;-70
2022/08/28 03:28:59;;;;;;;0.75;0.45;;;19.90;99.90;;;;;;5045964;28;20194;-73
2022/08/28 03:31:34;;;;;;;1.58;0.50;;;19.90;99.90;;;;;;5046238;28;20186;-70
2022/08/28 03:34:05;;;;;;;0.60;0.40;;;19.80;99.90;;;;;;5044731;28;20182;-75
2022/08/28 03:36:36;;;;;;;1.48;0.50;;;19.90;99.90;;;;;;5042655;28;20197;-74
2022/08/28 03:39:09;;;;;;;1.30;0.30;;;20.00;99.90;;;;;;5050359;28;20722;-71
2022/08/28 03:41:41;;;;;;;2.05;0.50;;;20.10;99.90;;;;;;5043090;28;20193;-71
2022/08/28 03:44:12;;;;;;;2.08;0.50;;;20.00;99.90;;;;;;5042854;28;20671;-72
2022/08/28 03:46:43;;;;;;;1.75;0.50;;;20.00;99.90;;;;;;5044688;28;20201;-71
2022/08/28 03:49:18;;;;;;;1.63;0.60;;;19.90;99.90;;;;;;5042626;28;20190;-71
2022/08/28 03:51:49;;;;;;;1.05;0.50;;;19.80;99.90;;;;;;5039870;28;20186;-71
2022/08/28 03:54:20;;;;;;;1.55;0.80;;;19.80;99.90;;;;;;5049510;28;20190;-71
2022/08/28 03:56:53;;;;;;;2.03;0.63;;;20.00;99.90;;;;;;5043902;28;20207;-72
2022/08/28 03:59:23;;;;;;;4.03;0.75;;;20.00;99.90;;;;;;5046561;28;20205;-70
2022/08/28 04:01:54;;;;;;;0.80;0.47;;;20.00;99.90;;;;;;5042929;28;20206;-70
2022/08/28 04:04:25;;;;;;;3.38;0.50;;;19.90;99.90;;;;;;5046162;28;20290;-69
2022/08/28 04:06:56;;;;;;;0.57;0.50;;;19.80;99.90;;;;;;5045504;28;20193;-73
2022/08/28 04:09:27;;;;;;;1.10;0.60;;;19.90;99.90;;;;;;5045945;28;20243;-70
2022/08/28 04:11:59;;;;;;;1.90;0.88;;;19.90;99.90;;;;;;5044831;28;20208;-71
2022/08/28 04:14:30;;;;;;;2.00;0.75;;;19.90;99.90;;;;;;5051167;28;20680;-71
2022/08/28 04:17:01;;;;;;;3.95;0.60;;;19.70;99.90;;;;;;5045394;28;20196;-73
2022/08/28 04:19:32;;;;;;;1.00;0.68;;;19.70;99.90;;;;;;5046640;28;21708;-70
2022/08/28 04:22:03;;;;;;;1.83;0.70;;;19.70;99.90;;;;;;5048593;28;20232;-73
2022/08/28 04:24:33;;;;;;;0.73;0.52;;;19.50;99.90;;;;;;5050182;28;20196;-71
2022/08/28 04:27:06;;;;;;;3.58;0.90;;;19.60;99.90;;;;;;5051935;28;20193;-70
2022/08/28 04:29:37;;;;;;;2.15;0.60;;;19.60;99.90;;;;;;5048539;28;20551;-73
2022/08/28 04:32:08;;;;;;;0.82;0.40;;;19.60;99.90;;;;;;5051417;28;20224;-71
2022/08/28 04:34:40;;;;;;;0.50;0.50;;;19.50;99.90;;;;;;5050686;28;20268;-75
2022/08/28 04:37:11;;;;;;;1.60;0.60;;;19.40;99.90;;;;;;5049409;28;20194;-71
2022/08/28 04:39:41;;;;;;;1.70;0.70;;;19.40;99.90;;;;;;5050923;28;20221;-70
2022/08/28 04:42:14;;;;;;;0.60;0.60;;;19.20;99.90;;;;;;5051966;28;20198;-71
2022/08/28 04:44:45;;;;;;;1.48;0.60;;;19.20;99.90;;;;;;5050981;28;20223;-70
2022/08/28 04:47:15;;;;;;;1.20;0.60;;;19.20;99.90;;;;;;5050420;28;20672;-70
2022/08/28 04:49:46;;;;;;;1.02;0.45;;;19.30;99.90;;;;;;5050423;28;20661;-74
2022/08/28 04:52:17;;;;;;;1.85;1.10;;;19.20;99.90;;;;;;5047219;28;20209;-71
2022/08/28 04:54:48;;;;;;;2.17;0.70;;;19.30;99.90;;;;;;5049485;28;20231;-70
2022/08/28 04:57:21;;;;;;;3.10;0.80;;;19.30;99.90;;;;;;5052111;28;20185;-70
2022/08/28 04:59:51;;;;;;;3.13;0.88;;;19.40;99.90;;;;;;5050385;28;20277;-70
2022/08/28 05:02:22;;;;;;;2.45;0.60;;;19.20;99.90;;;;;;5051311;28;20205;-69
2022/08/28 05:04:53;;;;;;;3.75;1.10;;;19.10;99.90;;;;;;5050842;28;20202;-70
2022/08/28 05:07:24;;;;;;;2.92;1.17;;;19.10;99.90;;;;;;5050097;28;20560;-71
2022/08/28 05:09:56;;;;;;;5.50;2.08;;;19.10;99.90;;;;;;5050192;28;20208;-72
2022/08/28 05:12:29;;;;;;;2.88;1.10;;;19.00;99.90;;;;;;5051933;28;20210;-69
2022/08/28 05:14:59;;;;;;;3.30;0.98;;;18.90;99.90;;;;;;5051454;28;20200;-72
2022/08/28 05:17:30;;;;;;;1.23;0.63;;;18.80;99.90;;;;;;5050024;28;20193;-72
2022/08/28 05:20:01;;;;;;;3.13;0.73;;;18.60;99.90;;;;;;5050442;28;20204;-69
2022/08/28 05:22:33;;;;;;;3.55;0.70;;;18.60;99.90;;;;;;5049041;28;20222;-70
2022/08/28 05:25:04;;;;;;;2.53;0.70;;;18.50;99.90;;;;;;5042722;28;20197;-69
2022/08/28 05:27:37;;;;;;;1.23;0.77;;;18.40;99.90;;;;;;5049445;28;20200;-73
2022/08/28 05:30:09;;;;;;;1.48;0.60;;;18.30;99.90;;;;;;5051282;28;20638;-70
2022/08/28 05:32:43;;;;;;;2.40;0.60;;;18.30;99.90;;;;;;5050464;28;20290;-70
2022/08/28 05:35:14;;;;;;;3.20;0.70;;;18.30;99.90;;;;;;5051554;28;20186;-71
2022/08/28 05:37:45;;;;;;;3.03;0.60;;;18.30;99.90;;;;;;5051547;28;20196;-70
2022/08/28 05:40:17;;;;;;;3.63;0.80;;;18.20;99.90;;;;;;5051432;28;20225;-70
2022/08/28 05:42:49;;;;;;;4.18;0.98;;;18.20;99.90;;;;;;5050937;28;20235;-70
2022/08/28 05:45:21;;;;;;;5.15;0.90;;;18.20;99.90;;;;;;5050821;28;20198;-70
2022/08/28 05:47:52;;;;;;;2.35;0.98;;;18.20;99.90;;;;;;5055417;28;20193;-70
2022/08/28 05:50:23;;;;;;;4.90;1.60;;;18.20;99.90;;;;;;5047826;28;20660;-70
2022/08/28 05:52:54;;;;;;;3.97;1.02;;;18.20;99.90;;;;;;5054611;28;20221;-70
2022/08/28 05:55:25;;;;;;;2.50;0.73;;;18.30;99.90;;;;;;5049502;28;20182;-71
2022/08/28 05:58:27;;;;;;;13.73;2.45;;;18.30;99.90;;;;;;5054660;28;20193;-70
2022/08/28 06:00:50;;;;;;;6.80;1.20;;;18.40;99.90;;;;;;5050592;28;20197;-71
2022/08/28 06:03:21;;;;;;;2.25;0.70;;;18.60;99.90;;;;;;5055259;28;20200;-70
2022/08/28 06:05:59;;;;;;;1.20;0.50;;;18.70;99.90;;;;;;5054799;28;20190;-70
2022/08/28 06:08:30;;;;;;;2.92;0.60;;;18.80;99.90;;;;;;5051988;28;20208;-71
2022/08/28 06:11:01;;;;;;;2.35;0.60;;;18.80;99.90;;;;;;5052816;28;20197;-71
2022/08/28 06:13:35;;;;;;;1.95;0.60;;;18.80;99.90;;;;;;5052671;28;20217;-70
2022/08/28 06:16:06;;;;;;;2.70;0.60;;;18.70;99.90;;;;;;5054298;28;20190;-72
2022/08/28 06:18:37;;;;;;;1.52;0.55;;;18.60;99.90;;;;;;5045438;28;20198;-72
2022/08/28 06:21:07;;;;;;;1.80;0.60;;;18.60;99.90;;;;;;5049669;28;20222;-72
2022/08/28 06:23:38;;;;;;;1.83;0.63;;;18.60;99.90;;;;;;5052070;28;20193;-72
2022/08/28 06:26:09;;;;;;;2.90;0.63;;;18.50;99.90;;;;;;5054183;28;20189;-70
2022/08/28 06:28:43;;;;;;;1.48;0.50;;;18.30;99.90;;;;;;5053916;28;20638;-73
2022/08/28 06:31:14;;;;;;;4.25;0.47;;;18.20;99.90;;;;;;5053725;28;20289;-72
2022/08/28 06:33:45;;;;;;;2.10;0.40;;;18.10;99.90;;;;;;5051355;28;20221;-71
2022/08/28 06:36:15;;;;;;;4.32;0.55;;;18.00;99.90;;;;;;5052230;28;20201;-73
2022/08/28 06:38:47;;;;;;;2.55;0.70;;;17.80;99.90;;;;;;5052410;28;20229;-71
2022/08/28 06:41:18;;;;;;;3.35;0.82;;;17.80;99.90;;;;;;5053090;28;20206;-71
2022/08/28 06:43:51;;;;;;;2.78;0.57;;;17.70;99.90;;;;;;5053479;28;20280;-71
2022/08/28 06:46:22;;;;;;;1.23;0.60;;;17.70;99.90;;;;;;5052426;28;20219;-74
2022/08/28 06:48:52;;;;;;;0.47;0.47;;;17.60;99.90;;;;;;5054296;28;20190;-71
2022/08/28 06:51:23;;;;;;;1.40;0.47;;;17.60;99.90;;;;;;5051876;28;20197;-69
2022/08/28 06:53:54;;;;;;;0.73;0.50;;;17.50;99.90;;;;;;5048988;28;20220;-72
2022/08/28 06:56:25;;;;;;;2.15;0.68;;;17.50;99.90;;;;;;5053345;28;20201;-71
2022/08/28 06:58:59;;;;;;;3.83;0.70;;;17.50;99.90;;;;;;5052524;28;20194;-71
2022/08/28 07:01:32;;;;;;;2.25;0.60;;;17.40;99.90;;;;;;5050102;28;20579;-69
2022/08/28 07:04:05;;;;;;;1.52;0.60;;;17.40;99.90;;;;;;5046526;28;20687;-70
2022/08/28 07:06:37;;;;;;;1.40;0.70;;;17.30;99.90;;;;;;5053418;28;20197;-69
2022/08/28 07:09:09;;;;;;;1.67;0.70;;;17.30;99.90;;;;;;5053286;28;20202;-69
2022/08/28 07:11:41;;;;;;;4.95;0.65;;;17.30;99.90;;;;;;5053868;28;20193;-68
2022/08/28 07:14:14;;;;;;;5.43;0.80;;;17.20;99.90;;;;;;5049606;28;20217;-71
2022/08/28 07:16:44;;;;;;;2.05;0.65;;;17.20;99.90;;;;;;5044740;28;20641;-74
2022/08/28 07:19:15;;;;;;;1.52;0.70;;;17.20;99.90;;;;;;5048489;28;20208;-71
2022/08/28 07:21:47;;;;;;;2.88;0.75;;;17.20;99.90;;;;;;5044226;28;20225;-71
2022/08/28 07:24:19;;;;;;;2.90;0.85;;;17.20;99.90;;;;;;5034716;28;20198;-72
2022/08/28 07:26:50;;;;;;;4.53;0.60;;;17.10;99.90;;;;;;5049899;28;20208;-70
2022/08/28 07:29:23;;;;;;;2.20;0.60;;;17.10;99.90;;;;;;5049413;28;20212;-70
2022/08/28 07:31:57;;;;;;;2.20;0.52;;;17.10;99.90;;;;;;5044637;28;20715;-71
2022/08/28 07:34:28;;;;;;;1.95;0.55;;;17.10;99.90;;;;;;5050190;28;20753;-71
2022/08/28 07:37:03;;;;;;;4.45;0.70;;;17.10;99.90;;;;;;5050371;28;20210;-70
2022/08/28 07:39:33;;;;;;;3.90;0.70;;;17.00;99.90;;;;;;5048966;28;20236;-71
2022/08/28 07:42:04;;;;;;;1.67;0.70;;;17.10;99.90;;;;;;5046351;28;20186;-73
2022/08/28 07:44:50;;;;;;;2.30;0.68;;;17.00;99.90;;;;;;5052441;28;20196;-74
2022/08/28 07:47:22;;;;;;;2.20;0.60;;;17.00;99.90;;;;;;5050097;28;20656;-71
2022/08/28 07:49:53;;;;;;;2.83;0.63;;;17.00;99.90;;;;;;5052514;28;20197;-70
2022/08/28 07:52:24;;;;;;;1.05;0.50;;;16.90;99.90;;;;;;5052927;28;20247;-74
2022/08/28 07:54:55;;;;;;;3.15;0.68;;;16.90;99.90;;;;;;5044448;28;20676;-70
2022/08/28 07:57:26;;;;;;;3.65;0.93;;;16.90;99.90;;;;;;5045997;28;20201;-70
2022/08/28 07:59:59;;;;;;;1.88;0.60;;;16.90;99.90;;;;;;5046866;28;20205;-70
2022/08/28 08:02:30;;;;;;;2.28;0.80;;;16.80;99.90;;;;;;5052100;28;20217;-71
2022/08/28 08:05:01;;;;;;;1.60;0.80;;;16.80;99.90;;;;;;5051100;28;20202;-70
2022/08/28 08:07:32;;;;;;;1.13;0.70;;;16.70;99.90;;;;;;5052215;28;20190;-70
2022/08/28 08:10:02;;;;;;;1.60;0.80;;;16.70;99.90;;;;;;5049983;28;20665;-70
2022/08/28 08:12:33;;;;;;;4.55;0.80;;;16.70;99.90;;;;;;5047563;28;20209;-69
2022/08/28 08:15:06;;;;;;;4.35;1.50;;;16.70;99.90;;;;;;5051235;28;20213;-70
2022/08/28 08:17:37;;;;;;;3.97;0.95;;;16.70;99.90;;;;;;5047865;28;20202;-69
2022/08/28 08:20:08;;;;;;;2.35;0.80;;;16.70;99.90;;;;;;5047473;28;20190;-70
2022/08/28 08:22:39;;;;;;;2.03;0.80;;;16.60;99.90;;;;;;5047067;28;20593;-69
2022/08/28 08:25:10;;;;;;;4.47;0.98;;;16.60;99.90;;;;;;5042065;28;20330;-70
2022/08/28 08:27:41;;;;;;;3.67;1.10;;;16.50;99.90;;;;;;5048899;28;20193;-70
2022/08/28 08:30:15;;;;;;;4.93;0.98;;;16.50;99.90;;;;;;5042902;28;20205;-71
2022/08/28 08:32:46;;;;;;;2.83;0.80;;;16.50;99.90;;;;;;5049535;28;20212;-71
2022/08/28 08:35:16;;;;;;;2.28;0.80;;;16.50;99.90;;;;;;5050532;28;20213;-70
2022/08/28 08:37:47;;;;;;;2.88;0.93;;;16.50;99.90;;;;;;5052073;28;20200;-71
2022/08/28 08:40:19;;;;;;;2.92;1.10;;;16.50;99.90;;;;;;5047919;28;20229;-71
2022/08/28 08:42:54;;;;;;;3.80;0.93;;;16.40;99.90;;;;;;5048899;28;20269;-71
2022/08/28 08:45:29;;;;;;;3.08;0.93;;;16.40;99.90;;;;;;5048556;28;20279;-70
2022/08/28 08:48:01;;;;;;;2.58;1.00;;;16.30;99.90;;;;;;5050605;28;20189;-70
2022/08/28 08:50:34;;;;;;;3.28;0.90;;;16.30;99.90;;;;;;5043454;28;20198;-70
2022/08/28 08:53:24;;;;;;;4.32;0.95;;;16.30;99.90;;;;;;5048506;28;20205;-70
2022/08/28 08:55:57;;;;;;;2.42;1.10;;;16.30;99.90;;;;;;5048786;28;20201;-70
2022/08/28 08:58:33;;;;;;;2.10;0.82;;;16.30;99.90;;;;;;5048754;28;20197;-71
2022/08/28 09:01:16;;;;;;;2.42;1.10;;;16.30;99.90;;;;;;5047836;28;20201;-71
2022/08/28 09:03:56;;;;;;;3.42;1.17;;;16.30;99.90;;;;;;5051741;28;20720;-71
2022/08/28 09:06:34;;;;;;;2.88;1.17;;;16.20;99.90;;;;;;5046778;28;20208;-69
2022/08/28 09:09:09;;;;;;;1.35;0.82;;;16.20;99.90;;;;;;5051397;28;20204;-69
2022/08/28 09:11:48;;;;;;;2.05;0.95;;;16.20;99.90;;;;;;5051275;28;20186;-70
2022/08/28 09:14:26;;;;;;;3.00;1.20;;;16.20;99.90;;;;;;5036772;28;20214;-71
2022/08/28 09:16:59;;;;;;;2.70;1.00;;;16.20;99.90;;;;;;5048974;28;20201;-73
2022/08/28 09:19:30;;;;;;;3.00;1.10;;;16.20;99.90;;;;;;5050574;28;20192;-70
2022/08/28 09:22:01;;;;;;;3.78;1.00;;;16.20;99.90;;;;;;5050693;28;20699;-71
2022/08/28 09:24:35;;;;;;;3.85;1.20;;;16.20;99.90;;;;;;5052895;28;20201;-70
2022/08/28 09:27:08;;;;;;;5.18;1.10;;;16.20;99.90;;;;;;5055179;28;20190;-71
2022/08/28 09:29:42;;;;;;;6.72;1.80;;;16.20;99.90;;;;;;5055066;28;20192;-69
2022/08/28 09:32:27;;;;;;;4.72;1.20;;;16.20;99.90;;;;;;5054259;28;20634;-70
2022/08/28 09:35:09;;;;;;;5.25;1.20;;;16.10;99.90;;;;;;5050796;28;20214;-72
2022/08/28 09:37:40;;;;;;;6.35;1.40;;;16.10;99.90;;;;;;5049007;28;20198;-71
2022/08/28 09:40:24;;;;;;;3.03;0.90;;;16.20;99.90;;;;;;5055174;28;20697;-71
2022/08/28 09:45:59;;;;;;;3.55;1.20;;;16.10;99.90;;;;;;5050799;28;20213;-70
2022/08/28 09:48:37;;;;;;;4.03;1.20;;;16.10;99.90;;;;;;5052889;28;20636;-69
2022/08/28 09:51:10;;;;;;;3.33;1.23;;;16.10;99.90;;;;;;5054481;28;20215;-70
2022/08/28 09:53:44;;;;;;;3.85;1.10;;;16.10;99.90;;;;;;5053609;28;20200;-70
2022/08/28 09:56:20;;;;;;;5.53;1.38;;;16.10;99.90;;;;;;5053947;28;20201;-70
2022/08/28 09:58:54;;;;;;;6.78;1.30;;;16.10;99.90;;;;;;5054565;28;20204;-71
2022/08/28 10:01:41;;;;;;;4.07;1.20;;;16.00;99.90;;;;;;5050266;28;20205;-69
2022/08/28 10:04:30;;;;;;;7.95;1.45;;;16.00;99.90;;;;;;5049828;28;20209;-72
2022/08/28 10:07:06;;;;;;;4.65;1.40;;;16.00;99.90;;;;;;5047695;28;20288;-71
2022/08/28 10:09:46;;;;;;;5.13;1.20;;;16.00;99.90;;;;;;5047662;28;20265;-69
2022/08/28 10:12:32;;;;;;;2.80;1.20;;;16.00;99.90;;;;;;5054583;28;20189;-70
2022/08/28 10:15:11;;;;;;;4.18;1.30;;;16.00;99.90;;;;;;5052686;28;20223;-69
2022/08/28 10:17:52;;;;;;;5.30;1.30;;;15.90;99.90;;;;;;5047748;28;20637;-69
2022/08/28 10:20:33;;;;;;;10.88;1.60;;;15.90;99.90;;;;;;5053195;28;20199;-70
2022/08/28 10:23:12;;;;;;;5.88;1.20;;;15.90;99.90;;;;;;5043931;28;20276;-70
2022/08/28 10:25:50;;;;;;;5.20;1.27;;;15.90;99.90;;;;;;5049414;28;20207;-69
2022/08/28 10:28:44;;;;;;;5.28;1.30;;;15.90;99.90;;;;;;5052370;28;20207;-71
2022/08/28 10:31:21;;;;;;;6.65;1.30;;;15.90;99.90;;;;;;5047758;28;20197;-70
2022/08/28 10:34:04;;;;;;;6.07;1.02;;;15.90;99.90;;;;;;5049415;28;20193;-69
2022/08/28 10:36:39;;;;;;;4.30;1.10;;;15.90;99.90;;;;;;5051340;28;20209;-70
2022/08/28 10:39:22;;;;;;;6.47;1.17;;;15.90;99.90;;;;;;5053433;28;20217;-69
2022/08/28 10:41:57;;;;;;;4.85;1.15;;;15.80;99.90;;;;;;5045984;28;20235;-69
2022/08/28 10:44:36;;;;;;;3.90;1.25;;;15.90;99.90;;;;;;5054071;28;20193;-70
2022/08/28 10:47:09;;;;;;;3.53;1.10;;;15.80;99.90;;;;;;5053643;28;20213;-70
2022/08/28 10:49:42;;;;;;;6.07;1.20;;;15.80;99.90;;;;;;5050572;28;20405;-70
2022/08/28 10:52:21;;;;;;;2.80;0.95;;;15.80;99.90;;;;;;5048901;28;20206;-69
2022/08/28 10:54:55;;;;;;;4.50;1.20;;;15.80;99.90;;;;;;5046272;28;20223;-70
2022/08/28 10:57:33;;;;;;;8.48;1.05;;;15.80;99.90;;;;;;5049950;28;20197;-70
2022/08/28 11:00:10;;;;;;;6.78;1.05;;;15.70;99.90;;;;;;5050737;28;20288;-69
2022/08/28 11:02:43;;;;;;;4.43;1.23;;;15.70;99.90;;;;;;5048191;28;20197;-70
2022/08/28 11:05:14;;;;;;;6.50;1.35;;;15.70;99.90;;;;;;5046094;28;20202;-69
2022/08/28 11:07:51;;;;;;;4.18;0.95;;;15.70;99.90;;;;;;5047972;28;20549;-69
2022/08/28 11:10:41;;;;;;;6.18;1.10;;;15.70;99.90;;;;;;5046226;28;20569;-70
2022/08/28 11:13:12;;;;;;;4.57;1.05;;;15.70;99.90;;;;;;5048366;28;20196;-69
2022/08/28 11:16:00;;;;;;;6.18;1.30;;;15.70;99.90;;;;;;5046469;28;20213;-70
2022/08/28 11:19:03;;;;;;;6.35;1.20;;;15.70;99.90;;;;;;5046486;28;20239;-69
2022/08/28 11:21:37;;;;;;;8.88;1.60;;;15.70;99.90;;;;;;5047699;28;20228;-71
2022/08/28 11:24:23;;;;;;;3.78;1.10;;;15.70;99.90;;;;;;5041480;28;20195;-70
2022/08/28 11:27:05;;;;;;;5.32;1.25;;;15.70;99.90;;;;;;5049624;28;20221;-69
2022/08/28 11:30:04;;;;;;;5.20;1.05;;;15.70;99.90;;;;;;5041601;28;20221;-69
2022/08/28 11:33:03;;;;;;;2.38;1.00;;;15.60;99.90;;;;;;5047154;28;20259;-69
2022/08/28 11:35:44;;;;;;;4.88;1.00;;;15.50;99.90;;;;;;5044615;28;20595;-70
2022/08/28 11:38:35;;;;;;;4.53;1.15;;;15.60;99.90;;;;;;5044316;28;20225;-69
2022/08/28 11:41:19;;;;;;;7.65;1.17;;;15.50;99.90;;;;;;5047423;28;20201;-70
2022/08/28 11:43:51;;;;;;;8.18;1.23;;;15.60;99.90;;;;;;5041643;28;20217;-72
2022/08/28 11:46:32;;;;;;;6.40;1.10;;;15.60;99.90;;;;;;5044491;28;20205;-70
2022/08/28 11:49:05;;;;;;;2.72;0.90;;;15.60;99.90;;;;;;5045343;28;20732;-72
2022/08/28 11:51:58;;;;;;;6.20;1.00;;;15.60;99.90;;;;;;5043049;28;20200;-71
2022/08/28 11:54:48;;;;;;;8.55;0.90;;;15.60;99.90;;;;;;5045954;28;20605;-70
2022/08/28 11:57:26;;;;;;;5.30;1.17;;;15.60;99.90;;;;;;5040399;28;20197;-72
2022/08/28 12:00:09;;;;;;;7.22;1.42;;;15.50;99.90;;;;;;5040702;28;20301;-72
2022/08/28 12:03:00;;;;;;;7.25;1.20;;;15.50;99.90;;;;;;5044012;28;20564;-72
2022/08/28 12:05:46;;;;;;;7.25;1.25;;;15.50;99.90;;;;;;5043351;28;20284;-71
2022/08/28 12:09:10;;;;;;;9.63;1.10;;;15.50;99.90;;;;;;5047496;28;20201;-73
2022/08/28 12:11:54;;;;;;;11.52;1.40;;;15.50;99.90;;;;;;5045767;28;20198;-71
2022/08/28 12:15:03;;;;;;;6.60;1.33;;;15.50;99.90;;;;;;5042538;28;20649;-75
2022/08/28 12:17:58;;;;;;;6.93;1.02;;;15.50;99.90;;;;;;5043919;28;20208;-71
2022/08/28 12:20:39;;;;;;;8.38;1.20;;;15.50;99.90;;;;;;5046534;28;20204;-70
2022/08/28 12:23:32;;;;;;;7.28;1.23;;;15.50;99.90;;;;;;5048445;28;20200;-71
2022/08/28 12:26:06;;;;;;;3.08;0.85;;;15.50;99.90;;;;;;5048077;28;20291;-73
2022/08/28 12:28:45;;;;;;;4.95;1.10;;;15.40;99.90;;;;;;5036289;28;20191;-73
2022/08/28 12:34:36;;;;;;;9.40;1.33;;;15.40;99.90;;;;;;5042707;28;20224;-73
2022/08/28 12:37:20;;;;;;;10.38;1.20;;;15.40;99.90;;;;;;5041625;28;20198;-75
2022/08/28 12:39:51;;;;;;;9.07;1.25;;;15.40;99.90;;;;;;5044518;28;20255;-74
2022/08/28 12:42:25;;;;;;;8.40;1.30;;;15.30;99.90;;;;;;5047362;28;20207;-74
2022/08/28 12:45:00;;;;;;;4.93;1.20;;;15.30;99.90;;;;;;5049171;28;20663;-74
2022/08/28 12:47:32;;;;;;;4.38;0.98;;;15.30;99.90;;;;;;5044978;28;20197;-71
2022/08/28 12:50:27;;;;;;;9.00;1.10;;;15.20;99.90;;;;;;5041280;28;20566;-74
2022/08/28 12:53:01;;;;;;;5.47;1.00;;;15.20;99.90;;;;;;5042606;28;20203;-73
2022/08/28 12:55:32;;;;;;;8.25;1.20;;;15.20;99.90;;;;;;5047505;28;20219;-72
2022/08/28 12:58:03;;;;;;;7.95;1.20;;;15.10;99.90;;;;;;5045248;28;20215;-74
2022/08/28 13:00:36;;;;;;;6.07;1.20;;;15.10;99.90;;;;;;5045759;28;20190;-73
2022/08/28 13:03:10;;;;;;;5.38;1.10;;;15.10;99.90;;;;;;5048618;28;20215;-73
2022/08/28 13:05:43;;;;;;;4.95;1.08;;;15.00;99.90;;;;;;5051003;28;20201;-74
2022/08/28 13:08:14;;;;;;;8.30;1.38;;;15.00;99.90;;;;;;5047990;28;20201;-73
2022/08/28 13:10:50;;;;;;;7.00;1.10;;;15.00;99.90;;;;;;5047819;28;20186;-73
2022/08/28 13:13:24;;;;;;;4.25;1.30;;;14.90;99.90;;;;;;5045867;28;20193;-73
2022/08/28 13:15:59;;;;;;;6.75;1.40;;;14.80;99.90;;;;;;5045361;28;20221;-73
2022/08/28 13:18:54;;;;;;;5.15;1.20;;;14.80;99.90;;;;;;5043091;28;20205;-71
2022/08/28 13:21:54;;;;;;;5.10;1.25;;;14.70;99.90;;;;;;5046668;28;20217;-73
2022/08/28 13:24:40;;;;;;;4.28;1.30;;;14.70;99.90;;;;;;5042013;28;20190;-70
2022/08/28 13:27:23;;;;;;;8.07;1.27;;;14.60;99.90;;;;;;5042551;28;20196;-70
2022/08/28 13:30:23;;;;;;;4.47;1.45;;;14.60;99.90;;;;;;5039805;28;20669;-70
2022/08/28 13:32:59;;;;;;;2.92;1.08;;;14.60;99.90;;;;;;5038122;28;20209;-69